Aérodrome :
LOGIN :

S'inscrire | Disclaimer

   EN    FR    IT 

 










Légende :    VFR   VFR Marginal   IFR   IFR Intensif   IFR Très Intensif
Visi : 
Plafond : 
>= 8 km
>= 3000ft
5 à 8 km
1000 à 3000 ft
1500m à 5 km
500 à 1000 ft
800 à 1500m
200 à 500 ft
< 800m
< 200 ft
Symboles :   Orages  Brouillard  Fortes neiges  Fortes précipitations  Vent > 20 kt
SIGMETs :   Divers  Orages  Givrage  Turbulence  Onde Orograph.  Cendres Volcan.






- Altitude de l'aérodrome : 220 ft
- Code IATA : CWL


EGFF - Cardiff Rhoose

DERNIER METAR :
  • 101150Z AUTO 04008KT 010V080 9999 SCT028 09/02 Q1014

METARs EXPIRÉS :
  • 101120Z AUTO 05009KT 9999 NCD 09/02 Q1014
  • 101050Z AUTO 05010KT 020V080 9999 FEW025 09/02 Q1014
  • 101020Z AUTO 06013KT 9999 NCD 08/02 Q1014
  • 100950Z AUTO 06012KT 020V090 9999 SCT022 08/02 Q1014
  • 100920Z AUTO 04011KT 010V070 9999 NCD 07/02 Q1014

TAF TAF EGFF
Valide du 10 à 12h jusqu'au 11 à 12h UTC


101101Z 1012/1112 05011KT 9999 FEW020 SCT040
PROB40
TEMPO 1014/1017 8000 SHRA BKN014
TEMPO 1017/1103 7000 RA BKN012
PROB30
TEMPO 1020/1103 3000 RASN BKN007
BECMG 1100/1103 35004KT
PROB30
TEMPO 1110/1112 4000 SHRASN BKN014
ATIS : +44 1446 729 319



MET'MAP, la Météo Aéronautique d'un coup d'oeil ! - Copyright ORBIFLY Décembre 2007 - Disclaimer

ORBIFLY MET'MAP TEAM :

Programmation & Développement : Alexandra Zaïnal
Sur une idée originale de : Baudouin d'Aumeries
Assistance à la programmation : Marc-Olivier Méhu
Soutien technique & logistique : Manuel Goepfert

Contact : metmap@orbifly.com




SOURCES & CREDITS :

   NOAA